SCC weather

Deadhorse Airport
Deadhorse, Alaska, United States

Public forecast

Using degrees Fahrenheit for public forecast. Weather courtesy of forecast.io.

Current aviation weather report (METAR) for Deadhorse Airport

Retrieved 2020/01/20 05:16 UTC (19 minutes ago):

PASC 200516Z 22011KT 10SM SCT007 M31/M34 A2957 RMK AO2 T13061339

Aviation forecast (TAF) for Deadhorse Airport

Retrieved 2020-01-20 00:30 UTC (5 hours ago):

TAF PASC 192324Z 2000/2024 22012KT P6SM SKC FM200200 24009KT P6SM VCFG FEW005